Aeroporto :
LOGIN :

Iscrizione | Disclaimer

   EN    FR    IT 

 










Sommario :    VFR   VFR Marginale   IFR   IFR Intensivo   IFR Molto Intensivo
Visibilità : 
Base nubi : 
>= 8 km
>= 3000ft
5 / 8 km
1000 / 3000 ft
1500m / 5 km
500 / 1000 ft
800 / 1500m
200 / 500 ft
< 800m
< 200 ft
Simboli :   Temporali  Nebbia  Neve Forte  Precipitazioni Forti  Vento > 20 kt
SIGMETs :   Varie  Temporali  Ghiacco  Turbolenza  Onda orograficha  Ceneri Vulcaniche






- Altitudine del aeroporto : 681 ft
- Codice IATA : OSL


ENGM - Oslo Gardermoen

ULTIMO METAR :
  • 050350Z 08006KT 050V130 9999 BKN025 13/08 Q0995 NOSIG

METARs OBSOLETI :
  • 050320Z 10005KT 050V130 9999 BKN026 13/08 Q0996
  • 050250Z 09005KT 060V130 9999 SCT026 BKN031 13/08 Q0996
  • 050220Z 08005KT 040V130 9999 SCT028 BKN049 13/07 Q0996
  • 050150Z 09006KT 060V130 9999 SCT037 BKN058 13/07 Q0996
  • 050120Z 09005KT 060V120 9999 FEW035 BKN058 14/07 Q0997

TAF TAF ENGM
Valido dal 05 a 00 ore il 06 a 00 ore UTC


0500/0524 07008KT 9999 FEW020 BKN040
TEMPO 0506/0515 14015G25KT
PROB30
TEMPO 0512/0518 RA
TEMPO 0518/0524 4000 SHRA BKN007 SCT020CB



MetMap, La meteo Aeronautica in un colpo d'occhio ! - Copyright ORBIFLY Dicembre 2007 - Disclaimer

ORBIFLY MET'MAP TEAM :

Programmazione e sviluppo : Alexandra Zaïnal
Concezione : Baudouin d'Aumeries
Aiuto per la programmazione : Marc-Olivier Méhu
Supporto tecnico e logistico : Manuel Goepfert
Aiuto per la traduzione : Arnaldo La Scala

Contatto : metmap@orbifly.com




FONTI E CREDITI :

   NOAA